Time;durP1;ratioP1;P1;durP2;ratioP2;P2;SDS_P1;SDS_P2;PMS_P1;PMS_P2;Temp;Humidity;BMP_temperature;BMP_pressure;BME280_temperature;BME280_humidity;BME280_pressure;Samples;Min_cycle;Max_cycle;Signal;HPM_P1;HPM_P2
2022/06/22 00:01:42;;;;;;;;;12.33;12.33;;;;;20.85;51.32;100424.09;5074528;27;46261;-65
2022/06/22 00:04:17;;;;;;;;;16.00;13.00;;;;;20.88;51.04;100428.31;5094120;27;45256;-64
2022/06/22 00:06:50;;;;;;;;;13.67;12.33;;;;;20.82;51.47;100435.19;5075375;27;45608;-65
2022/06/22 00:09:29;;;;;;;;;10.00;10.00;;;;;20.73;51.96;100430.75;5073833;27;45445;-64
2022/06/22 00:11:56;;;;;;;;;12.67;11.33;;;;;20.73;51.89;100430.75;5071212;27;46832;-65
2022/06/22 00:14:28;;;;;;;;;14.67;13.00;;;;;20.67;51.91;100430.50;5075566;27;45455;-66
2022/06/22 00:16:55;;;;;;;;;11.33;11.33;;;;;20.56;52.29;100427.00;5073737;27;45302;-65
2022/06/22 00:19:28;;;;;;;;;15.33;13.00;;;;;20.58;52.57;100438.53;5058635;28;45682;-63
2022/06/22 00:21:53;;;;;;;;;11.67;11.00;;;;;20.56;52.39;100435.13;5076475;27;46455;-64
2022/06/22 00:24:22;;;;;;;;;14.33;13.00;;;;;20.49;52.47;100428.66;5074261;27;45249;-66
2022/06/22 00:26:53;;;;;;;;;14.00;13.00;;;;;20.45;52.69;100421.88;5076560;27;45330;-65
2022/06/22 00:29:23;;;;;;;;;11.00;10.33;;;;;20.45;52.68;100410.22;5072208;27;46857;-66
2022/06/22 00:31:48;;;;;;;;;12.67;12.67;;;;;20.45;52.43;100424.56;5073483;27;46095;-65
2022/06/22 00:34:22;;;;;;;;;11.00;11.00;;;;;20.39;52.51;100417.03;5073115;27;45401;-64
2022/06/22 00:36:48;;;;;;;;;11.00;11.00;;;;;20.41;52.72;100424.97;5075824;27;45452;-63
2022/06/22 00:39:25;;;;;;;;;12.33;12.33;;;;;20.38;53.07;100419.88;5107930;27;45513;-64
2022/06/22 00:41:56;;;;;;;;;11.33;11.00;;;;;20.39;52.71;100422.44;5070826;27;45374;-65
2022/06/22 00:44:25;;;;;;;;;14.00;13.00;;;;;20.33;53.28;100417.66;5106462;27;45436;-65
2022/06/22 00:47:10;;;;;;;;;18.00;13.50;;;;;20.29;53.02;100405.44;5073834;27;45431;-65
2022/06/22 00:49:42;;;;;;;;;9.33;9.33;;;;;20.18;53.50;100403.84;5076269;27;46807;-64
2022/06/22 00:52:08;;;;;;;;;13.33;12.33;;;;;20.25;53.31;100415.69;5074570;27;45572;-65
2022/06/22 00:54:35;;;;;;;;;11.33;11.33;;;;;20.20;53.50;100411.78;5072322;27;45473;-64
2022/06/22 00:57:12;;;;;;;;;13.00;13.00;;;;;20.14;53.44;100412.38;5073163;27;45370;-66
2022/06/22 00:59:51;;;;;;;;;13.33;11.00;;;;;20.15;53.53;100420.31;5068030;27;45411;-64
2022/06/22 01:02:46;;;;;;;;;12.67;12.67;;;;;20.14;53.67;100425.88;5074159;27;46276;-66
2022/06/22 01:05:36;;;;;;;;;17.00;17.00;;;;;20.10;53.61;100411.81;5071740;27;45377;-65
2022/06/22 01:08:11;;;;;;;;;18.00;15.67;;;;;20.06;53.87;100415.84;5074372;27;45562;-66
2022/06/22 01:12:16;;;;;;;;;12.33;12.33;;;;;19.96;53.97;100413.19;5073655;27;45675;-65
2022/06/22 01:14:03;;;;;;;;;13.00;13.00;;;;;19.86;53.94;100415.09;5075342;27;45724;-64
2022/06/22 01:16:35;;;;;;;;;16.33;14.33;;;;;19.81;54.01;100409.28;5074296;27;45564;-69
2022/06/22 01:19:15;;;;;;;;;13.67;13.67;;;;;19.76;54.43;100408.88;5074505;27;45629;-65
2022/06/22 01:21:46;;;;;;;;;12.00;12.00;;;;;19.73;54.34;100403.78;5076551;27;47138;-65
2022/06/22 01:24:44;;;;;;;;;18.67;15.33;;;;;19.74;54.27;100402.78;5072770;27;47081;-65
2022/06/22 01:27:31;;;;;;;;;15.33;12.33;;;;;19.75;54.38;100415.28;5071776;27;45528;-62
2022/06/22 01:30:00;;;;;;;;;13.33;13.33;;;;;19.76;54.33;100398.09;5068468;27;45551;-66
2022/06/22 01:32:33;;;;;;;;;15.00;15.00;;;;;19.74;54.24;100405.47;5074074;27;45555;-66
2022/06/22 01:35:14;;;;;;;;;13.00;9.00;;;;;19.67;54.24;100401.69;5072286;27;46474;-68
2022/06/22 01:37:44;;;;;;;;;14.33;14.33;;;;;19.63;54.33;100403.81;5053860;27;45511;-66
2022/06/22 01:40:20;;;;;;;;;13.00;12.67;;;;;19.62;54.39;100404.81;5070344;27;45595;-64
2022/06/22 01:43:00;;;;;;;;;16.33;13.00;;;;;19.62;54.57;100395.88;5061182;27;45371;-64
2022/06/22 01:45:35;;;;;;;;;16.00;12.33;;;;;19.60;54.68;100398.72;5090057;27;45591;-64
2022/06/22 01:48:28;;;;;;;;;12.00;12.00;;;;;19.56;54.44;100399.19;5074056;27;45420;-65
2022/06/22 01:51:03;;;;;;;;;10.33;10.33;;;;;19.56;54.70;100396.50;5073596;27;45479;-64
2022/06/22 01:53:47;;;;;;;;;14.33;11.67;;;;;19.56;54.73;100412.69;5066187;27;45377;-65
2022/06/22 01:56:39;;;;;;;;;15.33;13.00;;;;;19.50;54.78;100429.41;5073979;27;45433;-64
2022/06/22 01:59:24;;;;;;;;;11.33;11.33;;;;;19.55;54.83;100419.06;5071074;27;45677;-66
2022/06/22 02:01:56;;;;;;;;;13.33;13.33;;;;;19.56;54.83;100418.91;5059622;27;45477;-64
2022/06/22 02:04:33;;;;;;;;;15.33;12.00;;;;;19.58;54.78;100416.91;5103981;27;45530;-65
2022/06/22 02:10:00;;;;;;;;;14.00;13.00;;;;;19.64;54.64;100434.34;5073111;27;46140;-64
2022/06/22 02:12:33;;;;;;;;;12.00;12.00;;;;;19.64;54.51;100446.00;5075200;27;45293;-65
2022/06/22 02:15:25;;;;;;;;;13.67;13.67;;;;;19.71;54.42;100451.66;5075128;27;45473;-63
2022/06/22 02:17:52;;;;;;;;;17.33;15.33;;;;;19.71;54.47;100433.63;5075071;27;45546;-65
2022/06/22 02:20:17;;;;;;;;;15.67;14.00;;;;;19.71;54.66;100440.88;5077366;27;45514;-65
2022/06/22 02:22:43;;;;;;;;;18.67;11.00;;;;;19.68;54.93;100443.88;5075121;27;45393;-64
2022/06/22 02:25:09;;;;;;;;;16.00;15.00;;;;;19.69;54.41;100438.31;5064805;27;45316;-64
2022/06/22 02:27:34;;;;;;;;;15.33;14.33;;;;;19.67;54.34;100431.38;5076001;27;45353;-63
2022/06/22 02:30:00;;;;;;;;;11.67;10.33;;;;;19.61;54.80;100427.41;5077450;27;45196;-64
2022/06/22 02:32:35;;;;;;;;;16.67;14.67;;;;;19.59;54.98;100406.97;5073777;27;45320;-64
2022/06/22 02:35:04;;;;;;;;;16.67;13.00;;;;;19.51;54.89;100409.53;5072693;27;45746;-65
2022/06/22 02:37:33;;;;;;;;;13.33;10.33;;;;;19.43;55.39;100402.19;5074894;27;45374;-64
2022/06/22 02:40:03;;;;;;;;;16.33;14.33;;;;;19.32;55.68;100400.50;5077172;27;45321;-63
2022/06/22 02:45:15;;;;;;;;;15.67;14.00;;;;;19.24;55.60;100419.25;5078016;28;45355;-63
2022/06/22 02:47:45;;;;;;;;;14.00;14.00;;;;;19.26;55.62;100414.56;5076736;27;46411;-63
2022/06/22 02:50:27;;;;;;;;;15.00;15.00;;;;;19.26;55.79;100416.41;5077221;27;45282;-64
2022/06/22 02:53:01;;;;;;;;;15.33;15.33;;;;;19.26;55.74;100416.41;5077278;27;45412;-64
2022/06/22 02:55:32;;;;;;;;;14.33;12.33;;;;;19.35;55.49;100419.09;5078055;27;45538;-63
2022/06/22 02:57:59;;;;;;;;;16.00;12.33;;;;;19.37;55.46;100413.53;5075007;27;46960;-64
2022/06/22 03:00:31;;;;;;;;;16.00;14.33;;;;;19.34;55.40;100406.59;5076333;27;45255;-64
2022/06/22 03:03:05;;;;;;;;;23.00;17.00;;;;;19.33;55.42;100407.59;5073284;27;45555;-64
2022/06/22 03:05:34;;;;;;;;;12.67;12.67;;;;;19.26;55.48;100389.44;5076218;27;45349;-65
2022/06/22 03:08:01;;;;;;;;;13.33;13.33;;;;;19.23;55.93;100387.06;5074499;27;45515;-65
2022/06/22 03:10:40;;;;;;;;;18.00;15.00;;;;;19.09;56.26;100366.81;5077053;27;45305;-64
2022/06/22 03:13:06;;;;;;;;;17.00;13.33;;;;;19.05;56.49;100374.34;5076645;27;45381;-65
2022/06/22 03:15:36;;;;;;;;;14.67;14.33;;;;;18.91;56.43;100380.19;5074807;27;45580;-64
2022/06/22 03:18:05;;;;;;;;;17.00;13.67;;;;;18.81;56.87;100369.41;5075709;27;46247;-65
2022/06/22 03:20:41;;;;;;;;;12.33;11.00;;;;;18.87;56.60;100384.16;5076378;28;45891;-64
2022/06/22 03:23:17;;;;;;;;;15.33;12.33;;;;;18.92;56.91;100381.03;5075815;28;45479;-66
2022/06/22 03:26:10;;;;;;;;;14.00;14.00;;;;;18.93;56.24;100382.75;5076965;27;45515;-66
2022/06/22 03:28:41;;;;;;;;;16.33;15.33;;;;;18.88;56.46;100360.75;5075203;28;45360;-65
2022/06/22 03:31:13;;;;;;;;;15.33;15.00;;;;;18.86;56.48;100353.66;5074179;27;45539;-63
2022/06/22 03:33:47;;;;;;;;;13.33;13.33;;;;;18.93;56.29;100351.25;5072376;27;45443;-64
2022/06/22 03:36:19;;;;;;;;;13.33;13.33;;;;;18.92;56.30;100343.31;5065007;28;45418;-64
2022/06/22 03:38:52;;;;;;;;;15.67;15.67;;;;;18.86;56.40;100342.03;5075324;28;46051;-64
2022/06/22 03:41:23;;;;;;;;;13.33;12.67;;;;;18.86;56.68;100361.75;5078315;27;45369;-64
2022/06/22 03:43:57;;;;;;;;;18.00;15.67;;;;;18.82;56.31;100360.34;5076357;27;45506;-64
2022/06/22 03:46:47;;;;;;;;;12.67;12.67;;;;;18.77;56.64;100361.78;5077931;27;45468;-65
2022/06/22 03:49:23;;;;;;;;;15.33;15.33;;;;;18.70;56.95;100353.41;5075361;28;48279;-63
2022/06/22 03:51:57;;;;;;;;;17.00;15.33;;;;;18.69;56.39;100349.03;5075634;27;45640;-64
2022/06/22 03:54:31;;;;;;;;;16.33;16.33;;;;;18.55;56.98;100346.75;5057834;28;45396;-65
2022/06/22 03:57:03;;;;;;;;;16.33;15.33;;;;;18.52;57.00;100347.03;5070891;28;45185;-65
2022/06/22 03:59:31;;;;;;;;;17.33;16.00;;;;;18.53;56.79;100343.34;5056395;28;45547;-65
2022/06/22 04:01:59;;;;;;;;;15.00;15.00;;;;;18.55;57.00;100344.03;5071087;27;45277;-65
2022/06/22 04:04:24;;;;;;;;;18.00;15.00;;;;;18.56;57.08;100356.50;5077320;27;45255;-65
2022/06/22 04:06:53;;;;;;;;;18.33;14.33;;;;;18.54;56.99;100356.66;5073002;27;45675;-64
2022/06/22 04:09:22;;;;;;;;;15.67;15.67;;;;;18.54;56.92;100356.66;5070960;28;47638;-64
2022/06/22 04:12:22;;;;;;;;;17.00;14.33;;;;;18.57;56.62;100359.06;5074397;27;45227;-66
2022/06/22 04:15:05;;;;;;;;;18.67;16.67;;;;;18.64;56.97;100372.84;5055020;27;45508;-66
2022/06/22 04:17:44;;;;;;;;;17.00;15.33;;;;;18.64;56.65;100372.84;5089682;27;45672;-65
2022/06/22 04:20:49;;;;;;;;;14.67;14.67;;;;;18.63;57.06;100368.44;5073574;28;45800;-65
2022/06/22 04:23:15;;;;;;;;;17.67;17.67;;;;;18.63;56.96;100365.75;5075043;27;45518;-65
2022/06/22 04:25:41;;;;;;;;;20.00;20.00;;;;;18.65;56.56;100369.16;5076478;27;45421;-64
2022/06/22 04:28:10;;;;;;;;;22.00;18.33;;;;;18.60;57.07;100371.38;5074333;27;45392;-65
2022/06/22 04:30:42;;;;;;;;;16.33;13.33;;;;;18.54;57.27;100372.81;5071779;27;45960;-65
2022/06/22 04:33:43;;;;;;;;;21.33;18.67;;;;;18.60;56.59;100365.16;5074538;27;45317;-65
2022/06/22 04:36:23;;;;;;;;;18.33;17.00;;;;;18.68;56.89;100385.03;5052982;28;45357;-65
2022/06/22 04:39:00;;;;;;;;;16.67;15.67;;;;;18.74;56.44;100384.44;5072232;28;46553;-66
2022/06/22 04:41:35;;;;;;;;;19.33;19.33;;;;;18.73;56.46;100385.44;5074835;27;45544;-64
2022/06/22 04:44:05;;;;;;;;;17.33;15.00;;;;;18.74;56.90;100373.66;5076956;27;45366;-67
2022/06/22 04:46:39;;;;;;;;;17.00;17.00;;;;;18.80;56.14;100373.09;5075691;27;45536;-65
2022/06/22 04:49:27;;;;;;;;;15.00;14.00;;;;;18.79;56.41;100375.94;5076853;28;45329;-64
2022/06/22 04:52:24;;;;;;;;;14.00;14.00;;;;;18.78;56.36;100379.63;5060333;27;45389;-65
2022/06/22 04:54:54;;;;;;;;;18.00;18.00;;;;;18.83;56.26;100362.03;5081448;27;45576;-66
2022/06/22 04:57:32;;;;;;;;;22.33;20.33;;;;;18.82;56.38;100370.28;5073559;27;46828;-64
2022/06/22 05:00:04;;;;;;;;;17.00;17.00;;;;;18.84;56.15;100358.34;5074632;27;45541;-67
2022/06/22 05:02:39;;;;;;;;;23.67;22.00;;;;;18.82;56.16;100349.56;5074895;28;45523;-63
2022/06/22 05:05:33;;;;;;;;;17.67;17.00;;;;;18.81;56.11;100363.19;5072472;27;45525;-65
2022/06/22 05:08:25;;;;;;;;;20.00;17.33;;;;;18.78;56.78;100364.31;5075402;27;45420;-64
2022/06/22 05:11:00;;;;;;;;;16.00;15.00;;;;;18.81;56.66;100353.25;5073209;27;45662;-66
2022/06/22 05:13:40;;;;;;;;;13.33;12.67;;;;;18.82;56.13;100357.66;5088987;27;46381;-67
2022/06/22 05:16:13;;;;;;;;;16.67;16.67;;;;;18.86;56.08;100359.03;5070934;27;45412;-64
2022/06/22 05:18:41;;;;;;;;;22.00;19.00;;;;;18.88;56.17;100361.63;5071277;27;45597;-66
2022/06/22 05:21:17;;;;;;;;;21.67;19.00;;;;;18.76;56.44;100358.25;5076935;28;45392;-65
2022/06/22 05:23:48;;;;;;;;;19.33;17.67;;;;;18.78;56.73;100356.25;5076252;27;46159;-64
2022/06/22 05:26:18;;;;;;;;;24.67;19.67;;;;;18.72;56.51;100370.28;5076395;28;45479;-64
2022/06/22 05:28:52;;;;;;;;;16.67;16.67;;;;;18.68;56.68;100376.94;5076411;27;45389;-63
2022/06/22 05:31:34;;;;;;;;;19.33;19.33;;;;;18.70;56.39;100383.03;5069637;27;45467;-68
2022/06/22 05:34:03;;;;;;;;;23.33;19.33;;;;;18.77;56.50;100359.94;5071836;27;46873;-66
2022/06/22 05:36:34;;;;;;;;;20.33;19.00;;;;;18.80;55.88;100367.72;5056854;28;45421;-64
2022/06/22 05:39:01;;;;;;;;;19.33;19.33;;;;;18.82;56.30;100364.88;5076317;27;45404;-67
2022/06/22 05:41:29;;;;;;;;;23.00;21.67;;;;;18.85;56.02;100343.03;5075093;27;45397;-69
2022/06/22 05:43:58;;;;;;;;;24.33;21.00;;;;;18.79;56.19;100360.63;5089561;27;46366;-68
2022/06/22 05:46:24;;;;;;;;;24.33;18.67;;;;;18.78;56.41;100347.31;5073662;28;45472;-65
2022/06/22 05:48:52;;;;;;;;;20.00;20.00;;;;;18.80;55.99;100356.09;5076097;27;45338;-66
2022/06/22 05:51:29;;;;;;;;;17.33;17.33;;;;;18.75;56.48;100359.22;5074737;27;45392;-69
2022/06/22 05:54:01;;;;;;;;;16.67;15.67;;;;;18.83;56.44;100355.81;5075597;27;45525;-67
2022/06/22 05:56:37;;;;;;;;;18.67;17.00;;;;;18.84;56.14;100363.72;5075834;27;45424;-67
2022/06/22 05:59:08;;;;;;;;;18.00;16.67;;;;;18.79;56.53;100357.94;5077072;28;45326;-63
2022/06/22 06:01:56;;;;;;;;;22.67;21.00;;;;;18.79;56.48;100371.41;5074939;28;45500;-66
2022/06/22 06:04:50;;;;;;;;;22.00;22.00;;;;;18.71;56.77;100363.19;5075208;27;45418;-63
2022/06/22 06:07:30;;;;;;;;;21.33;20.00;;;;;18.76;56.57;100350.16;5075585;27;45465;-61
2022/06/22 06:09:56;;;;;;;;;20.33;18.00;;;;;18.77;57.13;100346.47;5076320;27;45330;-67
2022/06/22 06:12:31;;;;;;;;;23.33;22.33;;;;;18.83;56.69;100345.88;5076077;27;45508;-65
2022/06/22 06:14:57;;;;;;;;;25.33;20.33;;;;;18.85;56.37;100348.41;5075609;27;46401;-65
2022/06/22 06:17:33;;;;;;;;;22.00;18.67;;;;;18.74;56.72;100352.13;5075529;27;45405;-67
2022/06/22 06:20:00;;;;;;;;;22.00;19.67;;;;;18.71;56.91;100349.72;5075672;27;45481;-63
2022/06/22 06:22:29;;;;;;;;;24.33;23.33;;;;;18.69;57.10;100351.72;5074035;27;45751;-65
2022/06/22 06:27:54;;;;;;;;;28.33;22.33;;;;;18.77;57.01;100365.31;5073498;28;45474;-65
2022/06/22 06:30:34;;;;;;;;;20.67;20.33;;;;;18.78;56.90;100360.78;5064952;28;46949;-66
2022/06/22 06:33:21;;;;;;;;;22.33;20.67;;;;;18.80;56.79;100356.94;5070308;28;45493;-64
2022/06/22 06:35:55;;;;;;;;;21.67;21.67;;;;;18.76;57.12;100349.31;5064955;27;45441;-64
2022/06/22 06:38:30;;;;;;;;;23.33;21.00;;;;;18.72;57.06;100356.81;5071080;27;45376;-66
2022/06/22 06:41:02;;;;;;;;;21.33;19.00;;;;;18.64;56.91;100354.00;5073757;27;45366;-62
2022/06/22 06:44:02;;;;;;;;;17.33;15.67;;;;;18.61;57.35;100367.69;5074762;28;45451;-63
2022/06/22 06:46:38;;;;;;;;;18.00;17.67;;;;;18.68;57.43;100368.03;5071907;28;45615;-63
2022/06/22 06:49:09;;;;;;;;;20.67;18.67;;;;;18.75;57.02;100361.03;5074113;28;45429;-65
2022/06/22 06:51:40;;;;;;;;;26.33;20.33;;;;;18.70;57.10;100357.94;5067274;27;45459;-66
2022/06/22 06:54:18;;;;;;;;;21.33;19.67;;;;;18.71;57.15;100357.81;5068879;28;45420;-63
2022/06/22 06:56:48;;;;;;;;;17.67;17.00;;;;;18.69;56.81;100358.94;5073166;28;46451;-64
2022/06/22 06:59:19;;;;;;;;;20.00;19.67;;;;;18.77;56.96;100359.94;5074033;27;45475;-68
2022/06/22 07:01:46;;;;;;;;;18.67;16.67;;;;;18.83;56.88;100369.28;5075267;27;45500;-64
2022/06/22 07:04:28;;;;;;;;;19.67;19.67;;;;;18.87;57.10;100365.28;5078500;27;45390;-65
2022/06/22 07:07:00;;;;;;;;;20.00;18.33;;;;;18.99;56.85;100383.00;5076918;28;45423;-63
2022/06/22 07:09:31;;;;;;;;;19.67;19.67;;;;;19.08;56.39;100383.97;5075700;28;45454;-62
2022/06/22 07:12:12;;;;;;;;;25.33;21.00;;;;;19.13;56.53;100377.13;5076894;27;45483;-63
2022/06/22 07:14:41;;;;;;;;;21.00;20.00;;;;;19.17;56.19;100369.63;5078258;27;45412;-66
2022/06/22 07:17:10;;;;;;;;;28.33;25.33;;;;;19.28;56.25;100366.75;5054732;28;46417;-64
2022/06/22 07:19:56;;;;;;;;;27.00;25.67;;;;;19.32;56.02;100361.91;5108327;27;45853;-67
2022/06/22 07:22:32;;;;;;;;;24.67;21.33;;;;;19.40;55.87;100360.19;5076882;27;45466;-64
2022/06/22 07:25:35;;;;;;;;;48.67;38.00;;;;;19.40;55.77;100349.41;5077724;27;45430;-62
2022/06/22 07:28:00;;;;;;;;;23.33;22.00;;;;;19.50;55.64;100354.72;5074589;28;46775;-66
2022/06/22 07:30:35;;;;;;;;;23.67;21.33;;;;;19.55;55.08;100354.34;5077727;27;45334;-63
2022/06/22 07:33:10;;;;;;;;;22.00;20.67;;;;;19.58;55.31;100356.72;5076870;28;45455;-61
2022/06/22 07:35:43;;;;;;;;;24.33;21.33;;;;;19.60;54.90;100352.88;5078366;27;45484;-61
2022/06/22 07:38:46;;;;;;;;;23.33;20.00;;;;;19.58;55.05;100356.72;5078658;27;45941;-61
2022/06/22 07:41:19;;;;;;;;;21.33;15.67;;;;;19.59;55.19;100358.41;5077949;27;45690;-63
2022/06/22 07:43:58;;;;;;;;;24.33;23.33;;;;;19.62;55.10;100369.75;5101495;27;45236;-68
2022/06/22 07:46:49;;;;;;;;;24.33;21.33;;;;;19.67;55.24;100369.31;5077918;27;45841;-67
2022/06/22 07:49:30;;;;;;;;;21.33;20.33;;;;;19.74;54.50;100373.94;5077723;27;47371;-66
2022/06/22 07:51:59;;;;;;;;;20.33;19.33;;;;;19.78;54.79;100377.19;5060038;28;45495;-65
2022/06/22 07:54:28;;;;;;;;;23.00;23.00;;;;;19.79;54.66;100378.03;5076721;27;45421;-66
2022/06/22 07:57:19;;;;;;;;;21.67;21.67;;;;;19.78;54.66;100368.25;5077603;27;45392;-63
2022/06/22 07:59:52;;;;;;;;;21.33;21.33;;;;;19.71;54.84;100368.00;5074421;28;47867;-67
2022/06/22 08:02:25;;;;;;;;;24.67;19.33;;;;;19.63;54.92;100370.59;5077740;27;45231;-65
2022/06/22 08:05:13;;;;;;;;;23.33;19.67;;;;;19.70;55.11;100377.13;5075621;27;45297;-67
2022/06/22 08:08:09;;;;;;;;;20.67;18.67;;;;;19.83;55.06;100392.94;5075732;27;45516;-64
2022/06/22 08:11:06;;;;;;;;;24.67;21.00;;;;;19.94;54.60;100403.56;5034143;28;45547;-62
2022/06/22 08:13:40;;;;;;;;;26.00;24.00;;;;;20.08;54.30;100403.03;5069868;27;45527;-63
2022/06/22 08:16:11;;;;;;;;;28.33;24.33;;;;;20.17;54.45;100393.16;5073127;27;45441;-64
2022/06/22 08:18:37;;;;;;;;;24.00;20.00;;;;;20.32;53.60;100395.19;5079142;27;45422;-64
2022/06/22 08:21:04;;;;;;;;;27.33;22.33;;;;;20.52;53.42;100389.66;5076113;27;46160;-67
2022/06/22 08:23:35;;;;;;;;;23.00;19.67;;;;;20.63;52.57;100394.00;5073364;27;45308;-63
2022/06/22 08:26:04;;;;;;;;;24.00;22.67;;;;;20.84;52.34;100395.38;5066078;27;45495;-67
2022/06/22 08:28:35;;;;;;;;;35.00;26.00;;;;;21.07;51.57;100390.28;5074803;28;45538;-66
2022/06/22 08:31:01;;;;;;;;;24.33;22.33;;;;;21.37;51.97;100396.25;5075681;28;47043;-63
2022/06/22 08:33:39;;;;;;;;;20.00;18.00;;;;;21.75;49.93;100393.06;5074621;27;45515;-63
2022/06/22 08:36:18;;;;;;;;;22.00;19.00;;;;;22.08;49.63;100380.50;5073655;27;45469;-68
2022/06/22 08:39:31;;;;;;;;;19.33;19.33;;;;;22.91;47.99;100406.72;5071958;27;45445;-64
2022/06/22 08:42:21;;;;;;;;;29.33;24.00;;;;;23.40;48.09;100383.06;5068168;27;46366;-65
2022/06/22 08:44:56;;;;;;;;;18.00;17.00;;;;;23.87;46.66;100384.97;5092163;27;45455;-63
2022/06/22 08:47:42;;;;;;;;;18.00;17.00;;;;;24.45;44.87;100380.91;5077420;27;45374;-68
2022/06/22 08:50:26;;;;;;;;;20.00;18.33;;;;;24.73;44.16;100374.91;5077067;27;45226;-65
2022/06/22 08:53:29;;;;;;;;;17.33;17.33;;;;;24.90;44.66;100373.75;5109629;27;47394;-64
2022/06/22 08:55:54;;;;;;;;;20.50;16.75;;;;;25.09;44.28;100370.53;5077206;27;45319;-66
2022/06/22 08:58:46;;;;;;;;;19.25;17.75;;;;;25.19;43.93;100371.13;5077131;27;45396;-64
2022/06/22 09:01:45;;;;;;;;;18.33;18.33;;;;;25.23;44.08;100377.88;5075156;27;45401;-63
2022/06/22 09:04:20;;;;;;;;;22.67;20.00;;;;;24.97;42.07;100385.59;5076939;27;45429;-63
2022/06/22 09:07:23;;;;;;;;;23.00;22.67;;;;;24.84;43.55;100388.09;5076006;28;45483;-64
2022/06/22 09:10:04;;;;;;;;;19.75;19.25;;;;;25.10;43.75;100383.09;5076691;28;45466;-65
2022/06/22 09:13:06;;;;;;;;;19.50;16.50;;;;;25.62;41.88;100382.19;5076995;27;45525;-67
2022/06/22 09:15:54;;;;;;;;;20.25;17.25;;;;;26.02;42.22;100394.47;5075342;27;46565;-63
2022/06/22 09:18:42;;;;;;;;;18.00;17.50;;;;;26.44;41.78;100382.84;5076356;27;45337;-65
2022/06/22 09:21:26;;;;;;;;;19.00;17.00;;;;;26.87;41.71;100385.56;5076862;27;45396;-64
2022/06/22 09:23:52;;;;;;;;;19.75;18.75;;;;;27.24;39.97;100376.22;5077020;27;45251;-65
2022/06/22 09:26:55;;;;;;;;;17.75;16.00;;;;;27.38;40.59;100374.41;5075450;28;45612;-66
2022/06/22 09:29:42;;;;;;;;;20.25;20.25;;;;;27.63;39.01;100370.16;5075711;27;45285;-71
2022/06/22 09:32:32;;;;;;;;;13.50;13.50;;;;;27.67;39.71;100372.50;5076692;28;45421;-65
2022/06/22 09:35:19;;;;;;;;;18.50;17.50;;;;;27.60;39.43;100373.25;5075043;27;45216;-65
2022/06/22 09:38:08;;;;;;;;;18.75;18.00;;;;;27.37;38.58;100382.81;5076360;27;46124;-69
2022/06/22 09:41:11;;;;;;;;;22.50;21.00;;;;;27.04;40.49;100384.25;5064793;27;45570;-61
2022/06/22 09:43:56;;;;;;;;;16.25;14.50;;;;;26.97;40.48;100387.97;5057875;27;45338;-62
2022/06/22 09:46:48;;;;;;;;;19.75;18.25;;;;;27.14;39.65;100386.63;5076426;27;45587;-66
2022/06/22 09:49:28;;;;;;;;;19.75;17.75;;;;;27.39;39.00;100386.19;5076255;27;45351;-65
2022/06/22 09:51:56;;;;;;;;;15.25;15.00;;;;;27.47;39.81;100384.13;5076326;27;45280;-61
2022/06/22 09:58:11;;;;;;;;;16.00;16.00;;;;;27.06;39.97;100392.25;5076020;28;45329;-63
2022/06/22 10:00:52;;;;;;;;;18.00;18.00;;;;;26.88;39.93;100389.13;5075732;27;46270;-62
2022/06/22 10:03:43;;;;;;;;;8.50;8.25;;;;;26.60;40.77;100391.81;5076284;27;45285;-61
2022/06/22 10:06:46;;;;;;;;;28.00;26.50;;;;;26.40;41.52;100391.59;5076134;27;45430;-61
2022/06/22 10:09:20;;;;;;;;;23.25;18.50;;;;;26.25;41.45;100386.16;5076145;28;45541;-66
2022/06/22 10:12:19;;;;;;;;;16.00;16.00;;;;;26.35;42.14;100383.97;5076351;27;45370;-62
2022/06/22 10:15:00;;;;;;;;;18.75;17.75;;;;;26.55;41.51;100381.47;5075903;27;45463;-61
2022/06/22 10:17:29;;;;;;;;;20.00;16.50;;;;;26.84;40.77;100388.69;5075638;27;45494;-60
2022/06/22 10:20:14;;;;;;;;;16.25;15.75;;;;;27.02;40.20;100383.59;5075715;27;45582;-64
2022/06/22 10:23:10;;;;;;;;;16.00;16.00;;;;;27.29;39.73;100375.59;5073865;28;45787;-60
2022/06/22 10:25:38;;;;;;;;;19.50;18.25;;;;;27.19;39.70;100375.13;5060993;27;45497;-63
2022/06/22 10:28:13;;;;;;;;;13.75;13.75;;;;;26.95;39.74;100379.09;5088462;27;45350;-67
2022/06/22 10:31:03;;;;;;;;;17.50;17.50;;;;;26.87;40.48;100380.09;5088774;27;45501;-62
2022/06/22 10:34:06;;;;;;;;;18.25;16.00;;;;;26.81;41.35;100378.13;5087899;27;46847;-68
2022/06/22 10:36:36;;;;;;;;;17.25;16.75;;;;;26.57;41.40;100370.38;5055158;28;45534;-65
2022/06/22 10:39:27;;;;;;;;;20.50;18.00;;;;;26.45;41.53;100379.09;5059376;28;45413;-64
2022/06/22 10:45:30;;;;;;;;;32.00;25.75;;;;;26.07;42.45;100361.22;5058556;28;45385;-68
2022/06/22 10:48:33;;;;;;;;;20.00;19.25;;;;;25.95;42.80;100363.59;5091312;27;45431;-65
2022/06/22 10:51:17;;;;;;;;;21.75;21.25;;;;;25.84;43.34;100362.22;5065932;27;45353;-66
2022/06/22 10:54:08;;;;;;;;;25.75;23.25;;;;;25.81;43.17;100362.59;5079252;27;45959;-68
2022/06/22 10:57:05;;;;;;;;;16.50;16.50;;;;;25.87;43.31;100358.25;5078160;28;46186;-68
2022/06/22 10:59:45;;;;;;;;;22.25;19.50;;;;;25.92;43.36;100357.69;5111508;27;45383;-66
2022/06/22 11:02:29;;;;;;;;;18.50;18.00;;;;;26.00;43.07;100352.13;5079145;27;45412;-69
2022/06/22 11:05:25;;;;;;;;;21.00;18.50;;;;;25.94;43.65;100350.19;5078983;28;45601;-65
2022/06/22 11:08:26;;;;;;;;;19.25;19.25;;;;;25.98;43.86;100344.13;5078901;28;45499;-68
2022/06/22 11:11:00;;;;;;;;;24.75;19.75;;;;;26.09;43.78;100348.25;5077446;28;45290;-61
2022/06/22 11:14:07;;;;;;;;;23.25;21.75;;;;;26.13;43.69;100353.09;5078480;27;45367;-70
2022/06/22 11:16:48;;;;;;;;;21.50;20.25;;;;;26.19;43.66;100353.41;5063492;28;45555;-65
2022/06/22 11:19:41;;;;;;;;;17.00;17.00;;;;;26.20;44.22;100349.63;5078039;27;46732;-64
2022/06/22 11:22:21;;;;;;;;;22.25;18.50;;;;;26.35;44.22;100345.81;5078406;27;45296;-67
2022/06/22 11:25:11;;;;;;;;;21.25;19.25;;;;;26.50;44.00;100347.66;5077201;28;45423;-63
2022/06/22 11:31:05;;;;;;;;;19.75;18.75;;;;;26.83;43.87;100348.81;5078366;28;45679;-66
2022/06/22 11:33:36;;;;;;;;;17.50;17.50;;;;;27.00;43.99;100344.72;5078050;27;45312;-67
2022/06/22 11:36:06;;;;;;;;;19.75;17.25;;;;;26.94;43.64;100341.94;5078200;27;45261;-62
2022/06/22 11:38:51;;;;;;;;;17.00;16.50;;;;;26.97;44.36;100356.03;5078133;28;45219;-65
2022/06/22 11:41:55;;;;;;;;;21.50;20.50;;;;;26.98;44.14;100351.44;5077778;28;46332;-60
2022/06/22 11:45:49;;;;;;;;;17.50;16.25;;;;;26.97;44.48;100347.03;5067460;27;45507;-66
2022/06/22 11:47:46;;;;;;;;;21.25;19.75;;;;;26.93;45.35;100352.00;5076475;27;45695;-65
2022/06/22 11:50:14;;;;;;;;;21.50;19.50;;;;;26.93;45.56;100349.28;5072045;28;45463;-63
2022/06/22 11:52:45;;;;;;;;;23.25;22.25;;;;;26.91;46.09;100356.81;5077305;28;45413;-67
2022/06/22 11:55:16;;;;;;;;;22.00;18.25;;;;;26.93;46.36;100343.81;5075433;27;45263;-71
2022/06/22 11:58:07;;;;;;;;;19.50;18.50;;;;;26.96;46.22;100350.78;5078065;27;45341;-62
2022/06/22 12:00:43;;;;;;;;;23.75;22.75;;;;;26.83;45.58;100337.88;5077207;28;45430;-63
2022/06/22 12:03:35;;;;;;;;;20.25;19.75;;;;;26.74;46.35;100345.34;5075712;27;45481;-68
2022/06/22 12:06:07;;;;;;;;;27.75;26.75;;;;;26.70;46.25;100348.69;5075421;27;45434;-65
2022/06/22 12:08:53;;;;;;;;;23.25;18.75;;;;;26.68;46.00;100351.59;5109704;27;45590;-63
2022/06/22 12:11:37;;;;;;;;;29.00;26.00;;;;;26.60;45.94;100351.75;5077437;27;45371;-63
2022/06/22 12:18:06;;;;;;;;;18.00;16.00;;;;;26.35;46.72;100355.88;5077164;27;45359;-65
2022/06/22 12:21:06;;;;;;;;;19.00;19.00;;;;;26.26;46.62;100373.38;5074728;28;45846;-63
2022/06/22 12:24:19;;;;;;;;;20.00;20.00;;;;;26.08;47.05;100374.66;5076215;27;45291;-63